sensor_id;sensor_type;location;lat;lon;timestamp;temperature;humidity
21121;DHT22;12519;43.318;21.898;2023-12-04T00:01:54;4.5;80.0
21121;DHT22;12519;43.318;21.898;2023-12-04T00:06:30;4.3;81.0
21121;DHT22;12519;43.318;21.898;2023-12-04T00:11:08;4.3;81.0
21121;DHT22;12519;43.318;21.898;2023-12-04T00:15:44;4.1;82.0
21121;DHT22;12519;43.318;21.898;2023-12-04T00:20:21;4.1;82.0
21121;DHT22;12519;43.318;21.898;2023-12-04T00:24:58;4.2;81.0
21121;DHT22;12519;43.318;21.898;2023-12-04T00:29:34;4.2;81.0
21121;DHT22;12519;43.318;21.898;2023-12-04T00:34:11;4.2;81.0
21121;DHT22;12519;43.318;21.898;2023-12-04T00:38:47;4.2;81.0
21121;DHT22;12519;43.318;21.898;2023-12-04T00:43:23;4.2;81.0
21121;DHT22;12519;43.318;21.898;2023-12-04T00:47:59;4.3;81.0
21121;DHT22;12519;43.318;21.898;2023-12-04T00:52:35;4.3;81.0
21121;DHT22;12519;43.318;21.898;2023-12-04T00:57:11;4.4;81.0
21121;DHT22;12519;43.318;21.898;2023-12-04T01:01:48;4.4;81.0
21121;DHT22;12519;43.318;21.898;2023-12-04T01:06:25;4.4;80.0
21121;DHT22;12519;43.318;21.898;2023-12-04T01:11:01;4.4;80.0
21121;DHT22;12519;43.318;21.898;2023-12-04T01:15:39;4.4;80.0
21121;DHT22;12519;43.318;21.898;2023-12-04T01:20:15;4.4;80.0
21121;DHT22;12519;43.318;21.898;2023-12-04T01:24:52;4.4;80.0
21121;DHT22;12519;43.318;21.898;2023-12-04T01:29:28;4.4;80.0
21121;DHT22;12519;43.318;21.898;2023-12-04T01:34:04;4.3;80.0
21121;DHT22;12519;43.318;21.898;2023-12-04T01:38:41;4.3;80.0
21121;DHT22;12519;43.318;21.898;2023-12-04T01:43:17;4.3;80.0
21121;DHT22;12519;43.318;21.898;2023-12-04T01:47:54;4.4;79.0
21121;DHT22;12519;43.318;21.898;2023-12-04T01:52:32;4.4;79.0
21121;DHT22;12519;43.318;21.898;2023-12-04T01:57:10;4.4;79.0
21121;DHT22;12519;43.318;21.898;2023-12-04T02:01:48;4.4;79.0
21121;DHT22;12519;43.318;21.898;2023-12-04T02:06:24;4.4;79.0
21121;DHT22;12519;43.318;21.898;2023-12-04T02:11:00;4.4;79.0
21121;DHT22;12519;43.318;21.898;2023-12-04T02:15:37;4.4;79.0
21121;DHT22;12519;43.318;21.898;2023-12-04T02:20:14;4.4;79.0
21121;DHT22;12519;43.318;21.898;2023-12-04T02:24:52;4.4;79.0
21121;DHT22;12519;43.318;21.898;2023-12-04T02:29:41;4.4;79.0
21121;DHT22;12519;43.318;21.898;2023-12-04T02:34:35;4.5;79.0
21121;DHT22;12519;43.318;21.898;2023-12-04T02:39:18;4.5;79.0
21121;DHT22;12519;43.318;21.898;2023-12-04T02:43:55;4.6;78.0
21121;DHT22;12519;43.318;21.898;2023-12-04T02:48:31;4.6;78.0
21121;DHT22;12519;43.318;21.898;2023-12-04T02:53:08;4.6;78.0
21121;DHT22;12519;43.318;21.898;2023-12-04T02:57:44;4.7;77.0
21121;DHT22;12519;43.318;21.898;2023-12-04T03:02:21;4.7;77.0
21121;DHT22;12519;43.318;21.898;2023-12-04T03:06:58;4.6;78.0
21121;DHT22;12519;43.318;21.898;2023-12-04T03:11:34;4.6;78.0
21121;DHT22;12519;43.318;21.898;2023-12-04T03:16:17;4.5;78.0
21121;DHT22;12519;43.318;21.898;2023-12-04T03:20:54;4.5;78.0
21121;DHT22;12519;43.318;21.898;2023-12-04T03:25:31;4.2;78.0
21121;DHT22;12519;43.318;21.898;2023-12-04T03:30:09;4.2;78.0
21121;DHT22;12519;43.318;21.898;2023-12-04T03:34:46;4.0;78.0
21121;DHT22;12519;43.318;21.898;2023-12-04T03:39:22;4.0;78.0
21121;DHT22;12519;43.318;21.898;2023-12-04T03:43:59;4.0;78.0
21121;DHT22;12519;43.318;21.898;2023-12-04T03:48:35;4.0;78.0
21121;DHT22;12519;43.318;21.898;2023-12-04T03:53:12;4.0;78.0
21121;DHT22;12519;43.318;21.898;2023-12-04T03:57:48;4.1;78.0
21121;DHT22;12519;43.318;21.898;2023-12-04T04:02:25;4.1;78.0
21121;DHT22;12519;43.318;21.898;2023-12-04T04:07:01;4.2;78.0
21121;DHT22;12519;43.318;21.898;2023-12-04T04:11:37;4.2;78.0
21121;DHT22;12519;43.318;21.898;2023-12-04T04:16:15;4.3;78.0
21121;DHT22;12519;43.318;21.898;2023-12-04T04:20:52;4.3;78.0
21121;DHT22;12519;43.318;21.898;2023-12-04T04:25:28;4.2;78.0
21121;DHT22;12519;43.318;21.898;2023-12-04T04:30:07;4.2;78.0
21121;DHT22;12519;43.318;21.898;2023-12-04T04:34:45;4.2;78.0
21121;DHT22;12519;43.318;21.898;2023-12-04T04:39:22;4.2;78.0
21121;DHT22;12519;43.318;21.898;2023-12-04T04:43:58;4.2;78.0
21121;DHT22;12519;43.318;21.898;2023-12-04T04:48:34;4.2;78.0
21121;DHT22;12519;43.318;21.898;2023-12-04T04:53:10;4.2;78.0
21121;DHT22;12519;43.318;21.898;2023-12-04T04:57:46;4.1;78.0
21121;DHT22;12519;43.318;21.898;2023-12-04T05:02:22;4.1;78.0
21121;DHT22;12519;43.318;21.898;2023-12-04T05:06:59;4.0;78.0
21121;DHT22;12519;43.318;21.898;2023-12-04T05:11:36;4.0;78.0
21121;DHT22;12519;43.318;21.898;2023-12-04T05:16:12;3.9;78.0
21121;DHT22;12519;43.318;21.898;2023-12-04T05:20:50;3.9;78.0
21121;DHT22;12519;43.318;21.898;2023-12-04T05:25:27;3.8;78.0
21121;DHT22;12519;43.318;21.898;2023-12-04T05:30:07;3.8;78.0
21121;DHT22;12519;43.318;21.898;2023-12-04T05:34:45;3.7;79.0
21121;DHT22;12519;43.318;21.898;2023-12-04T05:39:22;3.7;79.0
21121;DHT22;12519;43.318;21.898;2023-12-04T05:43:58;3.7;79.0
21121;DHT22;12519;43.318;21.898;2023-12-04T05:48:35;3.8;78.0
21121;DHT22;12519;43.318;21.898;2023-12-04T05:53:12;3.8;78.0
21121;DHT22;12519;43.318;21.898;2023-12-04T05:57:48;4.0;78.0
21121;DHT22;12519;43.318;21.898;2023-12-04T06:02:24;4.0;78.0
21121;DHT22;12519;43.318;21.898;2023-12-04T06:07:00;4.0;78.0
21121;DHT22;12519;43.318;21.898;2023-12-04T06:11:36;4.0;78.0
21121;DHT22;12519;43.318;21.898;2023-12-04T06:16:12;3.9;78.0
21121;DHT22;12519;43.318;21.898;2023-12-04T06:20:48;3.9;78.0
21121;DHT22;12519;43.318;21.898;2023-12-04T06:25:27;4.0;78.0
21121;DHT22;12519;43.318;21.898;2023-12-04T06:30:08;4.0;78.0
21121;DHT22;12519;43.318;21.898;2023-12-04T06:34:48;4.1;78.0
21121;DHT22;12519;43.318;21.898;2023-12-04T06:39:33;4.1;78.0
21121;DHT22;12519;43.318;21.898;2023-12-04T06:44:16;4.1;78.0
21121;DHT22;12519;43.318;21.898;2023-12-04T06:48:59;4.2;78.0
21121;DHT22;12519;43.318;21.898;2023-12-04T06:53:38;4.2;78.0
21121;DHT22;12519;43.318;21.898;2023-12-04T06:58:14;4.2;78.0
21121;DHT22;12519;43.318;21.898;2023-12-04T07:02:50;4.2;78.0
21121;DHT22;12519;43.318;21.898;2023-12-04T07:07:26;4.2;78.0
21121;DHT22;12519;43.318;21.898;2023-12-04T07:12:03;4.2;78.0
21121;DHT22;12519;43.318;21.898;2023-12-04T07:16:42;4.1;78.0
21121;DHT22;12519;43.318;21.898;2023-12-04T07:21:18;4.1;78.0
21121;DHT22;12519;43.318;21.898;2023-12-04T07:25:54;4.6;78.0
21121;DHT22;12519;43.318;21.898;2023-12-04T07:30:31;4.6;78.0
21121;DHT22;12519;43.318;21.898;2023-12-04T07:35:08;5.2;78.0
21121;DHT22;12519;43.318;21.898;2023-12-04T07:39:44;5.2;78.0
21121;DHT22;12519;43.318;21.898;2023-12-04T07:44:20;5.2;78.0
21121;DHT22;12519;43.318;21.898;2023-12-04T07:48:56;5.6;76.0
21121;DHT22;12519;43.318;21.898;2023-12-04T07:53:33;5.6;76.0
21121;DHT22;12519;43.318;21.898;2023-12-04T07:58:09;6.0;75.0
21121;DHT22;12519;43.318;21.898;2023-12-04T08:02:46;6.0;75.0
21121;DHT22;12519;43.318;21.898;2023-12-04T08:07:23;6.2;74.0
21121;DHT22;12519;43.318;21.898;2023-12-04T08:11:59;6.2;74.0
21121;DHT22;12519;43.318;21.898;2023-12-04T08:16:36;6.3;73.0
21121;DHT22;12519;43.318;21.898;2023-12-04T08:21:12;6.3;73.0
21121;DHT22;12519;43.318;21.898;2023-12-04T08:25:49;6.8;72.0
21121;DHT22;12519;43.318;21.898;2023-12-04T08:30:25;6.8;72.0
21121;DHT22;12519;43.318;21.898;2023-12-04T08:35:03;7.3;71.0
21121;DHT22;12519;43.318;21.898;2023-12-04T08:39:41;7.3;71.0
21121;DHT22;12519;43.318;21.898;2023-12-04T08:44:17;7.3;71.0
21121;DHT22;12519;43.318;21.898;2023-12-04T08:48:53;7.4;70.0
21121;DHT22;12519;43.318;21.898;2023-12-04T08:53:29;7.4;70.0
21121;DHT22;12519;43.318;21.898;2023-12-04T08:58:05;7.6;70.0
21121;DHT22;12519;43.318;21.898;2023-12-04T09:02:42;7.6;70.0
21121;DHT22;12519;43.318;21.898;2023-12-04T09:07:18;7.6;69.0
21121;DHT22;12519;43.318;21.898;2023-12-04T09:11:54;7.6;69.0
21121;DHT22;12519;43.318;21.898;2023-12-04T09:16:30;7.7;68.0
21121;DHT22;12519;43.318;21.898;2023-12-04T09:21:07;7.7;68.0
21121;DHT22;12519;43.318;21.898;2023-12-04T09:25:44;7.8;67.0
21121;DHT22;12519;43.318;21.898;2023-12-04T09:30:20;7.8;67.0
21121;DHT22;12519;43.318;21.898;2023-12-04T09:34:56;7.9;66.0
21121;DHT22;12519;43.318;21.898;2023-12-04T09:39:33;7.9;66.0
21121;DHT22;12519;43.318;21.898;2023-12-04T09:44:10;7.9;66.0
21121;DHT22;12519;43.318;21.898;2023-12-04T09:48:47;7.7;66.0
21121;DHT22;12519;43.318;21.898;2023-12-04T09:53:34;7.7;66.0
21121;DHT22;12519;43.318;21.898;2023-12-04T09:58:18;7.5;66.0
21121;DHT22;12519;43.318;21.898;2023-12-04T10:02:56;7.5;66.0
21121;DHT22;12519;43.318;21.898;2023-12-04T10:07:32;7.4;66.0
21121;DHT22;12519;43.318;21.898;2023-12-04T10:12:10;7.4;66.0
21121;DHT22;12519;43.318;21.898;2023-12-04T10:16:49;7.3;67.0
21121;DHT22;12519;43.318;21.898;2023-12-04T10:21:32;7.3;67.0
21121;DHT22;12519;43.318;21.898;2023-12-04T10:26:09;7.2;66.0
21121;DHT22;12519;43.318;21.898;2023-12-04T10:30:53;7.2;66.0
21121;DHT22;12519;43.318;21.898;2023-12-04T10:35:33;7.2;66.0
21121;DHT22;12519;43.318;21.898;2023-12-04T10:40:24;7.2;66.0
21121;DHT22;12519;43.318;21.898;2023-12-04T10:45:08;7.3;66.0
21121;DHT22;12519;43.318;21.898;2023-12-04T10:49:45;7.3;66.0
21121;DHT22;12519;43.318;21.898;2023-12-04T10:54:26;7.3;66.0
21121;DHT22;12519;43.318;21.898;2023-12-04T10:59:18;7.4;65.0
21121;DHT22;12519;43.318;21.898;2023-12-04T11:04:20;7.4;65.0
21121;DHT22;12519;43.318;21.898;2023-12-04T11:09:09;7.3;65.0
21121;DHT22;12519;43.318;21.898;2023-12-04T11:13:58;7.3;65.0
21121;DHT22;12519;43.318;21.898;2023-12-04T11:19:02;7.2;66.0
21121;DHT22;12519;43.318;21.898;2023-12-04T11:23:50;7.2;66.0
21121;DHT22;12519;43.318;21.898;2023-12-04T11:28:30;7.4;66.0
21121;DHT22;12519;43.318;21.898;2023-12-04T11:33:09;7.4;66.0
21121;DHT22;12519;43.318;21.898;2023-12-04T11:37:47;7.6;66.0
21121;DHT22;12519;43.318;21.898;2023-12-04T11:42:25;7.6;66.0
21121;DHT22;12519;43.318;21.898;2023-12-04T11:47:06;7.6;66.0
21121;DHT22;12519;43.318;21.898;2023-12-04T11:51:46;7.6;66.0
21121;DHT22;12519;43.318;21.898;2023-12-04T11:56:22;7.6;66.0
21121;DHT22;12519;43.318;21.898;2023-12-04T12:00:59;7.6;66.0
21121;DHT22;12519;43.318;21.898;2023-12-04T12:05:37;7.8;66.0
21121;DHT22;12519;43.318;21.898;2023-12-04T12:10:16;7.8;66.0
21121;DHT22;12519;43.318;21.898;2023-12-04T12:14:53;7.8;66.0
21121;DHT22;12519;43.318;21.898;2023-12-04T12:19:29;7.9;66.0
21121;DHT22;12519;43.318;21.898;2023-12-04T12:24:06;7.9;66.0
21121;DHT22;12519;43.318;21.898;2023-12-04T12:28:43;8.2;66.0
21121;DHT22;12519;43.318;21.898;2023-12-04T12:33:23;8.2;66.0
21121;DHT22;12519;43.318;21.898;2023-12-04T12:37:59;8.4;65.0
21121;DHT22;12519;43.318;21.898;2023-12-04T12:42:37;8.4;65.0
21121;DHT22;12519;43.318;21.898;2023-12-04T12:47:16;8.1;65.0
21121;DHT22;12519;43.318;21.898;2023-12-04T12:51:54;8.1;65.0
21121;DHT22;12519;43.318;21.898;2023-12-04T12:56:30;7.8;65.0
21121;DHT22;12519;43.318;21.898;2023-12-04T13:01:10;7.8;65.0
21121;DHT22;12519;43.318;21.898;2023-12-04T13:05:48;7.8;65.0
21121;DHT22;12519;43.318;21.898;2023-12-04T13:10:24;7.8;65.0
21121;DHT22;12519;43.318;21.898;2023-12-04T13:15:02;7.8;65.0
21121;DHT22;12519;43.318;21.898;2023-12-04T13:19:40;7.9;65.0
21121;DHT22;12519;43.318;21.898;2023-12-04T13:24:17;7.9;65.0
21121;DHT22;12519;43.318;21.898;2023-12-04T13:28:53;7.8;65.0
21121;DHT22;12519;43.318;21.898;2023-12-04T13:33:30;7.8;65.0
21121;DHT22;12519;43.318;21.898;2023-12-04T13:38:07;7.7;66.0
21121;DHT22;12519;43.318;21.898;2023-12-04T13:42:43;7.7;66.0
21121;DHT22;12519;43.318;21.898;2023-12-04T13:47:19;7.8;66.0
21121;DHT22;12519;43.318;21.898;2023-12-04T13:51:56;7.8;66.0
21121;DHT22;12519;43.318;21.898;2023-12-04T13:56:32;8.0;66.0
21121;DHT22;12519;43.318;21.898;2023-12-04T14:01:11;8.0;66.0
21121;DHT22;12519;43.318;21.898;2023-12-04T14:05:47;8.0;65.0
21121;DHT22;12519;43.318;21.898;2023-12-04T14:10:23;8.0;65.0
21121;DHT22;12519;43.318;21.898;2023-12-04T14:14:59;8.0;65.0
21121;DHT22;12519;43.318;21.898;2023-12-04T14:19:36;8.1;65.0
21121;DHT22;12519;43.318;21.898;2023-12-04T14:24:12;8.1;65.0
21121;DHT22;12519;43.318;21.898;2023-12-04T14:28:48;7.8;66.0
21121;DHT22;12519;43.318;21.898;2023-12-04T14:33:24;7.8;66.0
21121;DHT22;12519;43.318;21.898;2023-12-04T14:38:01;7.4;66.0
21121;DHT22;12519;43.318;21.898;2023-12-04T14:42:37;7.4;66.0
21121;DHT22;12519;43.318;21.898;2023-12-04T14:47:13;7.2;66.0
21121;DHT22;12519;43.318;21.898;2023-12-04T14:51:50;7.2;66.0
21121;DHT22;12519;43.318;21.898;2023-12-04T14:56:26;7.1;67.0
21121;DHT22;12519;43.318;21.898;2023-12-04T15:01:03;7.1;67.0
21121;DHT22;12519;43.318;21.898;2023-12-04T15:05:40;7.0;67.0
21121;DHT22;12519;43.318;21.898;2023-12-04T15:10:17;7.0;67.0
21121;DHT22;12519;43.318;21.898;2023-12-04T15:14:53;7.0;67.0
21121;DHT22;12519;43.318;21.898;2023-12-04T15:19:29;6.9;68.0
21121;DHT22;12519;43.318;21.898;2023-12-04T15:24:06;6.9;68.0
21121;DHT22;12519;43.318;21.898;2023-12-04T15:28:43;6.6;69.0
21121;DHT22;12519;43.318;21.898;2023-12-04T15:33:20;6.6;69.0
21121;DHT22;12519;43.318;21.898;2023-12-04T15:37:56;6.2;70.0
21121;DHT22;12519;43.318;21.898;2023-12-04T15:42:32;6.2;70.0
21121;DHT22;12519;43.318;21.898;2023-12-04T15:47:08;6.1;70.0
21121;DHT22;12519;43.318;21.898;2023-12-04T15:51:45;6.1;70.0
21121;DHT22;12519;43.318;21.898;2023-12-04T15:56:21;5.9;71.0
21121;DHT22;12519;43.318;21.898;2023-12-04T16:00:58;5.9;71.0
21121;DHT22;12519;43.318;21.898;2023-12-04T16:05:34;5.9;71.0
21121;DHT22;12519;43.318;21.898;2023-12-04T16:10:12;6.0;71.0
21121;DHT22;12519;43.318;21.898;2023-12-04T16:14:49;6.0;71.0
21121;DHT22;12519;43.318;21.898;2023-12-04T16:19:26;6.0;72.0
21121;DHT22;12519;43.318;21.898;2023-12-04T16:24:03;6.0;72.0
21121;DHT22;12519;43.318;21.898;2023-12-04T16:28:41;6.1;71.0
21121;DHT22;12519;43.318;21.898;2023-12-04T16:33:17;6.1;71.0
21121;DHT22;12519;43.318;21.898;2023-12-04T16:37:54;6.2;71.0
21121;DHT22;12519;43.318;21.898;2023-12-04T16:42:30;6.2;71.0
21121;DHT22;12519;43.318;21.898;2023-12-04T16:47:06;6.1;71.0
21121;DHT22;12519;43.318;21.898;2023-12-04T16:51:43;6.1;71.0
21121;DHT22;12519;43.318;21.898;2023-12-04T16:56:19;5.9;72.0
21121;DHT22;12519;43.318;21.898;2023-12-04T17:00:55;5.9;72.0
21121;DHT22;12519;43.318;21.898;2023-12-04T17:05:31;5.9;72.0
21121;DHT22;12519;43.318;21.898;2023-12-04T17:10:09;6.0;72.0
21121;DHT22;12519;43.318;21.898;2023-12-04T17:14:45;6.0;72.0
21121;DHT22;12519;43.318;21.898;2023-12-04T17:19:22;6.0;72.0
21121;DHT22;12519;43.318;21.898;2023-12-04T17:23:59;6.0;72.0
21121;DHT22;12519;43.318;21.898;2023-12-04T17:28:35;5.8;72.0
21121;DHT22;12519;43.318;21.898;2023-12-04T17:33:12;5.8;72.0
21121;DHT22;12519;43.318;21.898;2023-12-04T17:37:49;5.7;72.0
21121;DHT22;12519;43.318;21.898;2023-12-04T17:42:26;5.7;72.0
21121;DHT22;12519;43.318;21.898;2023-12-04T17:47:02;5.6;73.0
21121;DHT22;12519;43.318;21.898;2023-12-04T17:51:39;5.6;73.0
21121;DHT22;12519;43.318;21.898;2023-12-04T17:56:15;5.4;73.0
21121;DHT22;12519;43.318;21.898;2023-12-04T18:00:51;5.4;73.0
21121;DHT22;12519;43.318;21.898;2023-12-04T18:05:28;5.4;73.0
21121;DHT22;12519;43.318;21.898;2023-12-04T18:10:07;5.2;74.0
21121;DHT22;12519;43.318;21.898;2023-12-04T18:14:44;5.2;74.0
21121;DHT22;12519;43.318;21.898;2023-12-04T18:19:20;5.0;74.0
21121;DHT22;12519;43.318;21.898;2023-12-04T18:23:56;5.0;74.0
21121;DHT22;12519;43.318;21.898;2023-12-04T18:28:34;4.8;75.0
21121;DHT22;12519;43.318;21.898;2023-12-04T18:33:12;4.8;75.0
21121;DHT22;12519;43.318;21.898;2023-12-04T18:38:05;4.5;76.0
21121;DHT22;12519;43.318;21.898;2023-12-04T18:42:59;4.5;76.0
21121;DHT22;12519;43.318;21.898;2023-12-04T18:47:50;4.3;76.0
21121;DHT22;12519;43.318;21.898;2023-12-04T18:52:41;4.3;76.0
21121;DHT22;12519;43.318;21.898;2023-12-04T18:57:19;4.1;76.0
21121;DHT22;12519;43.318;21.898;2023-12-04T19:01:55;4.1;76.0
21121;DHT22;12519;43.318;21.898;2023-12-04T19:06:31;4.3;76.0
21121;DHT22;12519;43.318;21.898;2023-12-04T19:11:08;4.3;76.0
21121;DHT22;12519;43.318;21.898;2023-12-04T19:15:44;4.3;76.0
21121;DHT22;12519;43.318;21.898;2023-12-04T19:20:20;4.5;76.0
21121;DHT22;12519;43.318;21.898;2023-12-04T19:24:56;4.5;76.0
21121;DHT22;12519;43.318;21.898;2023-12-04T19:29:33;4.6;76.0
21121;DHT22;12519;43.318;21.898;2023-12-04T19:34:09;4.6;76.0
21121;DHT22;12519;43.318;21.898;2023-12-04T19:38:45;4.8;76.0
21121;DHT22;12519;43.318;21.898;2023-12-04T19:43:21;4.8;76.0
21121;DHT22;12519;43.318;21.898;2023-12-04T19:47:57;4.8;75.0
21121;DHT22;12519;43.318;21.898;2023-12-04T19:52:33;4.8;75.0
21121;DHT22;12519;43.318;21.898;2023-12-04T19:57:10;4.8;75.0
21121;DHT22;12519;43.318;21.898;2023-12-04T20:01:47;4.8;75.0
21121;DHT22;12519;43.318;21.898;2023-12-04T20:06:23;4.8;75.0
21121;DHT22;12519;43.318;21.898;2023-12-04T20:10:59;4.8;75.0
21121;DHT22;12519;43.318;21.898;2023-12-04T20:15:36;4.8;75.0
21121;DHT22;12519;43.318;21.898;2023-12-04T20:20:12;4.7;75.0
21121;DHT22;12519;43.318;21.898;2023-12-04T20:24:49;4.7;75.0
21121;DHT22;12519;43.318;21.898;2023-12-04T20:29:25;4.4;76.0
21121;DHT22;12519;43.318;21.898;2023-12-04T20:34:01;4.4;76.0
21121;DHT22;12519;43.318;21.898;2023-12-04T20:38:38;4.2;76.0
21121;DHT22;12519;43.318;21.898;2023-12-04T20:43:14;4.2;76.0
21121;DHT22;12519;43.318;21.898;2023-12-04T20:47:51;4.3;77.0
21121;DHT22;12519;43.318;21.898;2023-12-04T20:52:27;4.3;77.0
21121;DHT22;12519;43.318;21.898;2023-12-04T20:57:03;4.4;77.0
21121;DHT22;12519;43.318;21.898;2023-12-04T21:01:40;4.4;77.0
21121;DHT22;12519;43.318;21.898;2023-12-04T21:06:16;4.4;77.0
21121;DHT22;12519;43.318;21.898;2023-12-04T21:10:52;4.1;78.0
21121;DHT22;12519;43.318;21.898;2023-12-04T21:15:29;4.1;78.0
21121;DHT22;12519;43.318;21.898;2023-12-04T21:20:10;3.8;79.0
21121;DHT22;12519;43.318;21.898;2023-12-04T21:24:48;3.8;79.0
21121;DHT22;12519;43.318;21.898;2023-12-04T21:29:25;4.0;79.0
21121;DHT22;12519;43.318;21.898;2023-12-04T21:34:01;4.0;79.0
21121;DHT22;12519;43.318;21.898;2023-12-04T21:38:38;4.3;79.0
21121;DHT22;12519;43.318;21.898;2023-12-04T21:43:15;4.3;79.0
21121;DHT22;12519;43.318;21.898;2023-12-04T21:47:51;4.3;79.0
21121;DHT22;12519;43.318;21.898;2023-12-04T21:52:28;4.3;79.0
21121;DHT22;12519;43.318;21.898;2023-12-04T21:57:05;4.3;78.0
21121;DHT22;12519;43.318;21.898;2023-12-04T22:01:41;4.3;78.0
21121;DHT22;12519;43.318;21.898;2023-12-04T22:06:18;4.3;78.0
21121;DHT22;12519;43.318;21.898;2023-12-04T22:10:54;4.4;78.0
21121;DHT22;12519;43.318;21.898;2023-12-04T22:15:31;4.4;78.0
21121;DHT22;12519;43.318;21.898;2023-12-04T22:20:08;4.5;78.0
21121;DHT22;12519;43.318;21.898;2023-12-04T22:24:46;4.5;78.0
21121;DHT22;12519;43.318;21.898;2023-12-04T22:29:22;4.4;78.0
21121;DHT22;12519;43.318;21.898;2023-12-04T22:33:58;4.4;78.0
21121;DHT22;12519;43.318;21.898;2023-12-04T22:38:36;4.2;78.0
21121;DHT22;12519;43.318;21.898;2023-12-04T22:43:13;4.2;78.0
21121;DHT22;12519;43.318;21.898;2023-12-04T22:47:49;4.2;78.0
21121;DHT22;12519;43.318;21.898;2023-12-04T22:52:26;4.2;78.0
21121;DHT22;12519;43.318;21.898;2023-12-04T22:57:04;4.1;78.0
21121;DHT22;12519;43.318;21.898;2023-12-04T23:01:41;4.1;78.0
21121;DHT22;12519;43.318;21.898;2023-12-04T23:06:17;4.1;78.0
21121;DHT22;12519;43.318;21.898;2023-12-04T23:10:54;4.0;79.0
21121;DHT22;12519;43.318;21.898;2023-12-04T23:15:30;4.0;79.0
21121;DHT22;12519;43.318;21.898;2023-12-04T23:20:10;4.0;79.0
21121;DHT22;12519;43.318;21.898;2023-12-04T23:24:47;4.0;79.0
21121;DHT22;12519;43.318;21.898;2023-12-04T23:29:23;4.0;80.0
21121;DHT22;12519;43.318;21.898;2023-12-04T23:34:00;4.0;80.0
21121;DHT22;12519;43.318;21.898;2023-12-04T23:38:36;4.0;80.0
21121;DHT22;12519;43.318;21.898;2023-12-04T23:43:12;4.0;80.0
21121;DHT22;12519;43.318;21.898;2023-12-04T23:47:48;4.0;80.0
21121;DHT22;12519;43.318;21.898;2023-12-04T23:52:24;4.0;80.0
21121;DHT22;12519;43.318;21.898;2023-12-04T23:57:01;4.1;81.0
